Time;durP1;ratioP1;P1;durP2;ratioP2;P2;SDS_P1;SDS_P2;PMS_P1;PMS_P2;Temp;Humidity;BMP_temperature;BMP_pressure;BME280_temperature;BME280_humidity;BME280_pressure;Samples;Min_cycle;Max_cycle;Signal;HPM_P1;HPM_P2
2021/06/26 00:01:54;;;;;;;4.35;1.70;;;;;;;18.99;67.52;97948.59;5051990;28;20116;-75
2021/06/26 00:04:19;;;;;;;1.67;1.33;;;;;;;19.00;68.23;97950.22;5052192;28;20025;-75
2021/06/26 00:06:44;;;;;;;1.98;1.50;;;;;;;18.96;68.02;97943.75;5052384;28;20077;-74
2021/06/26 00:09:10;;;;;;;5.43;1.77;;;;;;;19.03;68.14;97954.25;5052299;28;20025;-75
2021/06/26 00:11:35;;;;;;;2.90;1.63;;;;;;;19.00;68.63;97955.78;5052536;28;20029;-74
2021/06/26 00:14:02;;;;;;;2.65;1.48;;;;;;;19.00;68.92;97963.28;5052124;28;20033;-76
2021/06/26 00:16:27;;;;;;;4.85;1.42;;;;;;;19.04;67.76;97959.47;5052080;28;20544;-75
2021/06/26 00:18:52;;;;;;;3.15;1.60;;;;;;;19.01;68.09;97964.91;5049030;28;20117;-75
2021/06/26 00:21:18;;;;;;;2.58;1.63;;;;;;;19.06;68.95;97975.75;5042545;28;20387;-77
2021/06/26 00:23:43;;;;;;;5.10;1.45;;;;;;;19.05;69.21;97976.91;5041638;28;20040;-74
2021/06/26 00:26:09;;;;;;;2.92;1.40;;;;;;;19.06;68.64;97978.53;5051826;28;20436;-75
2021/06/26 00:28:34;;;;;;;2.47;1.48;;;;;;;19.02;67.94;97983.94;5051771;28;20056;-74
2021/06/26 00:30:59;;;;;;;4.40;1.42;;;;;;;19.03;68.86;97985.59;5051723;28;20021;-74
2021/06/26 00:33:25;;;;;;;2.50;1.63;;;;;;;18.96;68.30;97979.81;5051851;28;20060;-74
2021/06/26 00:35:50;;;;;;;4.40;1.50;;;;;;;19.01;68.45;97982.34;5051663;28;20086;-75
2021/06/26 00:38:16;;;;;;;2.35;1.60;;;;;;;19.02;68.07;97983.13;5051927;28;20029;-74
2021/06/26 00:40:41;;;;;;;3.78;2.08;;;;;;;19.03;68.20;97993.09;5033693;28;20021;-74
2021/06/26 00:43:07;;;;;;;2.70;1.20;;;;;;;18.99;68.22;97986.63;5033409;28;20029;-75
2021/06/26 00:45:32;;;;;;;2.80;1.65;;;;;;;19.01;68.99;97987.91;5050268;28;20397;-74
2021/06/26 00:47:58;;;;;;;2.90;1.40;;;;;;;18.99;68.23;97981.88;5046683;28;20037;-75
2021/06/26 00:50:26;;;;;;;3.35;1.58;;;;;;;18.97;68.28;97997.25;5050249;28;20028;-73
2021/06/26 00:52:52;;;;;;;2.58;1.50;;;;;;;18.91;68.24;97988.38;5031126;28;20034;-73
2021/06/26 00:55:19;;;;;;;5.30;1.80;;;;;;;18.90;68.53;97995.06;5037610;28;20073;-74
2021/06/26 00:57:58;;;;;;;6.18;1.75;;;;;;;18.89;68.67;97990.66;5032643;28;20036;-74
2021/06/26 01:00:31;;;;;;;2.88;1.50;;;;;;;18.92;68.82;97986.41;5048914;28;20104;-75
2021/06/26 01:02:57;;;;;;;3.03;1.33;;;;;;;18.91;68.68;97999.47;5047068;28;20401;-75
2021/06/26 01:05:23;;;;;;;3.53;1.80;;;;;;;18.83;68.64;97980.97;5050597;28;20044;-74
2021/06/26 01:07:48;;;;;;;4.63;1.45;;;;;;;18.87;68.84;97992.19;5033086;28;20028;-74
2021/06/26 01:10:14;;;;;;;4.35;1.42;;;;;;;18.83;68.84;97980.97;5050545;28;20083;-74
2021/06/26 01:12:40;;;;;;;5.97;1.60;;;;;;;18.81;69.07;97991.63;5051189;28;20366;-74
2021/06/26 01:15:07;;;;;;;2.60;1.60;;;;;;;18.82;69.20;97990.47;5050873;28;20056;-75
2021/06/26 01:17:33;;;;;;;1.67;1.20;;;;;;;18.79;68.92;97982.84;5051177;28;20036;-75
2021/06/26 01:20:00;;;;;;;2.40;1.38;;;;;;;18.86;69.33;97996.91;5033014;28;20021;-74
2021/06/26 01:22:27;;;;;;;1.70;1.30;;;;;;;18.92;69.09;97991.97;5032597;28;20066;-75
2021/06/26 01:24:53;;;;;;;5.78;2.17;;;;;;;18.93;68.83;97986.06;5050642;28;20071;-74
2021/06/26 01:27:19;;;;;;;3.83;1.83;;;;;;;18.99;68.52;97984.66;5050581;28;20056;-74
2021/06/26 01:29:53;;;;;;;2.22;1.30;;;;;;;19.01;68.97;97982.34;5033006;28;20043;-74
2021/06/26 01:32:19;;;;;;;2.92;1.35;;;;;;;19.04;69.16;97986.38;5049990;28;20024;-75
2021/06/26 01:34:45;;;;;;;10.80;1.90;;;;;;;19.04;68.66;97989.97;5049868;28;20033;-74
2021/06/26 01:37:12;;;;;;;2.08;1.25;;;;;;;19.08;68.67;97982.56;5050563;28;20063;-74
2021/06/26 01:39:37;;;;;;;1.92;1.58;;;;;;;19.13;68.41;97975.97;5054506;28;20067;-75
2021/06/26 01:42:03;;;;;;;3.35;1.70;;;;;;;19.14;68.42;97975.59;5054651;28;20052;-74
2021/06/26 01:44:29;;;;;;;1.77;1.27;;;;;;;19.11;68.33;97979.06;5051185;28;20500;-74
2021/06/26 01:46:55;;;;;;;2.95;1.55;;;;;;;19.06;68.43;97984.06;5032325;28;20049;-74
2021/06/26 01:49:20;;;;;;;3.70;1.75;;;;;;;19.07;68.45;97992.06;5032196;28;20044;-73
2021/06/26 01:51:45;;;;;;;4.30;1.10;;;;;;;19.13;68.66;97996.19;5050373;28;20013;-73
2021/06/26 01:54:12;;;;;;;2.47;1.20;;;;;;;19.18;68.54;97998.72;5032475;28;20024;-75
2021/06/26 01:56:38;;;;;;;2.97;1.40;;;;;;;19.14;68.59;97994.22;5050207;28;20032;-74
2021/06/26 01:59:04;;;;;;;1.65;1.50;;;;;;;19.13;68.40;97990.66;5050272;28;20063;-74
2021/06/26 02:01:29;;;;;;;3.60;1.45;;;;;;;19.16;68.91;97998.28;5049951;28;20041;-76
2021/06/26 02:03:55;;;;;;;5.32;2.10;;;;;;;19.20;69.41;97990.84;5050757;28;20040;-74
2021/06/26 02:06:20;;;;;;;3.30;1.80;;;;;;;19.22;69.65;97987.72;5050808;28;20033;-74
2021/06/26 02:08:46;;;;;;;4.18;1.95;;;;;;;19.14;69.83;97992.25;5042746;28;20021;-74
2021/06/26 02:11:11;;;;;;;6.15;2.55;;;;;;;19.06;70.10;97987.66;5044532;28;20024;-75
2021/06/26 02:13:37;;;;;;;3.33;2.20;;;;;;;19.09;70.44;97995.28;5048796;28;20025;-73
2021/06/26 02:16:02;;;;;;;4.53;2.30;;;;;;;19.12;70.21;97994.56;5049902;28;20482;-74
2021/06/26 02:18:28;;;;;;;1.83;1.58;;;;;;;19.16;70.17;98001.03;5049690;28;20100;-74
2021/06/26 02:20:53;;;;;;;4.88;2.03;;;;;;;19.15;70.18;97993.88;5050364;28;20509;-75
2021/06/26 02:23:19;;;;;;;7.63;2.15;;;;;;;19.23;69.81;97994.91;5032242;28;20064;-74
2021/06/26 02:25:44;;;;;;;2.63;1.50;;;;;;;19.19;69.81;97999.53;5031512;28;20133;-75
2021/06/26 02:28:09;;;;;;;4.88;1.85;;;;;;;19.19;69.76;97996.75;5050028;28;20029;-73
2021/06/26 02:30:35;;;;;;;6.35;1.75;;;;;;;19.14;70.01;97992.25;5050413;28;20027;-74
2021/06/26 02:33:00;;;;;;;3.45;1.75;;;;;;;19.19;70.06;97999.53;5049659;28;20474;-75
2021/06/26 02:35:26;;;;;;;2.28;1.67;;;;;;;19.18;70.39;98004.25;5032083;28;20017;-74
2021/06/26 02:37:51;;;;;;;3.75;2.25;;;;;;;19.19;70.31;97997.56;5050157;28;20032;-75
2021/06/26 02:40:17;;;;;;;1.83;1.30;;;;;;;19.19;70.34;97997.56;5050463;28;20029;-74
2021/06/26 02:42:43;;;;;;;2.53;1.63;;;;;;;19.16;70.23;97997.44;5048689;28;20045;-74
2021/06/26 02:45:09;;;;;;;2.00;1.80;;;;;;;19.18;70.26;97998.72;5043879;28;20041;-73
2021/06/26 02:47:35;;;;;;;3.50;2.53;;;;;;;19.17;70.61;98002.63;5045515;28;20120;-74
2021/06/26 02:50:00;;;;;;;3.30;1.58;;;;;;;19.11;70.67;98006.81;5048603;28;20112;-74
2021/06/26 02:52:25;;;;;;;5.65;1.67;;;;;;;19.05;71.06;98005.44;5049311;28;20540;-73
2021/06/26 02:54:51;;;;;;;2.08;1.65;;;;;;;19.01;71.43;98010.09;5049989;28;20033;-74
2021/06/26 02:57:17;;;;;;;1.98;1.65;;;;;;;18.97;71.69;97998.06;5049601;28;20408;-74
2021/06/26 02:59:44;;;;;;;4.47;2.00;;;;;;;18.94;71.58;98003.50;5049628;28;20036;-74
2021/06/26 03:02:10;;;;;;;2.78;2.00;;;;;;;18.81;71.86;98002.69;5049898;28;20059;-75
2021/06/26 03:04:35;;;;;;;1.83;1.42;;;;;;;18.83;72.04;98000.38;5041226;28;20064;-74
2021/06/26 03:07:01;;;;;;;4.47;1.77;;;;;;;18.78;72.17;97995.09;5033421;28;20025;-74
2021/06/26 03:09:26;;;;;;;2.20;1.73;;;;;;;18.78;72.46;97997.84;5031925;28;20545;-75
2021/06/26 03:11:52;;;;;;;3.17;1.55;;;;;;;18.80;72.55;98003.03;5034159;28;20026;-75
2021/06/26 03:14:17;;;;;;;5.07;1.90;;;;;;;18.77;72.42;98001.78;5033025;28;20029;-73
2021/06/26 03:16:42;;;;;;;3.53;2.10;;;;;;;18.76;72.78;98011.25;5033698;28;20056;-74
2021/06/26 03:19:08;;;;;;;2.15;1.27;;;;;;;18.69;72.79;98005.47;5038950;28;20051;-74
2021/06/26 03:21:33;;;;;;;3.05;1.60;;;;;;;18.68;73.11;98001.09;5052653;28;20017;-74
2021/06/26 03:23:59;;;;;;;1.88;1.55;;;;;;;18.70;73.13;98012.66;5052583;28;20021;-74
2021/06/26 03:26:24;;;;;;;2.05;1.60;;;;;;;18.73;73.04;98011.97;5034569;28;20120;-74
2021/06/26 03:28:50;;;;;;;3.72;1.70;;;;;;;18.80;72.89;98020.47;5052798;28;20029;-74
2021/06/26 03:31:16;;;;;;;2.72;1.77;;;;;;;18.82;72.66;98029.28;5052797;28;20075;-74
2021/06/26 03:33:41;;;;;;;2.65;1.85;;;;;;;18.77;72.57;98032.25;5052313;28;20028;-76
2021/06/26 03:36:08;;;;;;;4.13;2.40;;;;;;;18.78;72.48;98033.88;5052837;28;20493;-73
2021/06/26 03:38:33;;;;;;;2.15;1.73;;;;;;;18.83;72.71;98036.41;5053280;28;20095;-73
2021/06/26 03:40:58;;;;;;;5.15;1.63;;;;;;;18.86;72.67;98044.03;5052534;28;20179;-73
2021/06/26 03:43:24;;;;;;;1.55;1.30;;;;;;;18.90;72.71;98042.19;5035410;28;20131;-73
2021/06/26 03:45:49;;;;;;;2.83;1.60;;;;;;;18.96;72.42;98045.53;5053033;28;20053;-74
2021/06/26 03:48:15;;;;;;;7.07;2.15;;;;;;;19.03;72.42;98040.22;5052914;28;20029;-74
2021/06/26 03:50:41;;;;;;;4.35;2.15;;;;;;;18.97;72.19;98044.38;5052691;28;20013;-75
2021/06/26 03:53:07;;;;;;;3.50;2.13;;;;;;;19.01;72.14;98039.78;5051356;28;20021;-73
2021/06/26 03:55:33;;;;;;;2.97;1.70;;;;;;;19.00;72.08;98047.28;5051859;28;20108;-75
2021/06/26 03:57:58;;;;;;;4.13;1.80;;;;;;;18.99;72.03;98042.88;5052772;28;20021;-75
2021/06/26 04:00:24;;;;;;;5.18;2.17;;;;;;;19.24;71.63;98050.00;5056494;28;20439;-75
2021/06/26 04:02:49;;;;;;;6.10;2.28;;;;;;;19.46;70.71;98047.91;5053368;28;20021;-76
2021/06/26 04:05:14;;;;;;;1.83;1.40;;;;;;;19.80;69.18;98055.66;5052201;28;20040;-73
2021/06/26 04:07:40;;;;;;;3.58;1.45;;;;;;;20.14;67.92;98057.03;5034550;28;20029;-74
2021/06/26 04:10:08;;;;;;;2.60;1.50;;;;;;;20.30;67.08;98049.53;5041885;28;20044;-74
2021/06/26 04:12:33;;;;;;;2.25;1.83;;;;;;;20.38;66.29;98061.66;5024839;28;20112;-73
2021/06/26 04:14:59;;;;;;;3.90;1.80;;;;;;;20.50;65.95;98059.59;5014196;28;20033;-74
2021/06/26 04:17:25;;;;;;;4.35;1.42;;;;;;;20.70;65.45;98054.97;5031492;28;20029;-75
2021/06/26 04:19:50;;;;;;;4.80;2.55;;;;;;;21.00;64.43;98063.63;5032735;28;20055;-74
2021/06/26 04:22:15;;;;;;;1.65;1.35;;;;;;;21.08;63.68;98057.88;5032699;28;20025;-74
2021/06/26 04:24:41;;;;;;;1.77;1.50;;;;;;;20.90;63.23;98059.41;5014272;28;20034;-73
2021/06/26 04:27:06;;;;;;;4.30;1.55;;;;;;;20.70;63.59;98063.31;5032327;28;20076;-74
2021/06/26 04:29:32;;;;;;;2.90;1.60;;;;;;;20.61;63.81;98068.25;5013865;28;20013;-74
2021/06/26 04:31:58;;;;;;;2.58;1.90;;;;;;;20.65;64.03;98072.69;5037436;28;20508;-74
2021/06/26 04:34:24;;;;;;;2.50;1.63;;;;;;;20.82;63.77;98074.31;5045739;28;20043;-73
2021/06/26 04:36:50;;;;;;;4.22;1.40;;;;;;;20.92;63.84;98075.75;5050993;28;20025;-74
2021/06/26 04:39:16;;;;;;;1.70;1.50;;;;;;;21.01;62.81;98090.28;5051510;28;20017;-76
2021/06/26 04:41:41;;;;;;;7.63;1.10;;;;;;;21.00;62.92;98081.13;5052659;28;20119;-75
2021/06/26 04:44:06;;;;;;;2.60;1.30;;;;;;;21.02;62.84;98086.34;5052307;28;20025;-74
2021/06/26 04:46:32;;;;;;;3.25;1.88;;;;;;;20.81;62.80;98081.84;5051727;28;20044;-76
2021/06/26 04:48:58;;;;;;;1.92;1.65;;;;;;;20.71;63.58;98084.34;5052282;28;20013;-74
2021/06/26 04:51:25;;;;;;;3.47;2.13;;;;;;;20.47;63.54;98078.97;5047445;28;20026;-75
2021/06/26 04:53:50;;;;;;;8.30;4.68;;;;;;;20.46;63.89;98074.56;5037646;28;20028;-74
2021/06/26 04:56:16;;;;;;;7.22;4.28;;;;;;;20.59;63.83;98073.31;5051481;28;20025;-74
2021/06/26 04:58:41;;;;;;;6.82;3.95;;;;;;;20.69;63.34;98078.34;5051544;28;20436;-73
2021/06/26 05:01:07;;;;;;;6.45;3.05;;;;;;;20.86;62.62;98075.25;5051374;28;20083;-74
2021/06/26 05:03:32;;;;;;;6.40;2.50;;;;;;;20.96;62.00;98083.00;5051738;28;20111;-74
2021/06/26 05:06:00;;;;;;;3.17;1.60;;;;;;;21.06;62.25;98082.47;5051666;28;20436;-75
2021/06/26 05:08:25;;;;;;;4.13;1.30;;;;;;;21.09;62.10;98084.56;5051710;28;20025;-74
2021/06/26 05:10:51;;;;;;;3.38;1.50;;;;;;;21.14;62.10;98075.94;5051569;28;20025;-73
2021/06/26 05:13:16;;;;;;;2.03;1.50;;;;;;;21.18;62.03;98078.78;5051999;28;20086;-72
2021/06/26 05:15:42;;;;;;;2.92;1.40;;;;;;;21.31;61.89;98083.91;5055783;28;20520;-74
2021/06/26 05:18:09;;;;;;;1.60;1.42;;;;;;;21.47;61.23;98088.63;5051383;28;20027;-74
2021/06/26 05:20:34;;;;;;;3.00;1.52;;;;;;;21.54;60.30;98086.00;5051369;28;20024;-72
2021/06/26 05:23:12;;;;;;;3.33;1.48;;;;;;;21.65;60.16;98089.81;5051463;28;20040;-74
2021/06/26 05:25:37;;;;;;;7.57;1.40;;;;;;;21.75;59.72;98086.47;5050959;28;20385;-74
2021/06/26 05:28:03;;;;;;;3.42;1.48;;;;;;;21.93;59.36;98093.22;5050636;28;20088;-74
2021/06/26 05:30:28;;;;;;;6.18;2.30;;;;;;;21.97;58.00;98091.34;5051245;28;20085;-74
2021/06/26 05:32:54;;;;;;;3.72;1.50;;;;;;;22.10;58.25;98092.00;5051086;28;20024;-74
2021/06/26 05:35:19;;;;;;;1.80;1.48;;;;;;;22.18;57.03;98090.94;5050956;28;20432;-74
2021/06/26 05:37:46;;;;;;;2.28;1.40;;;;;;;22.22;56.81;98095.44;5050865;28;20021;-74
2021/06/26 05:40:12;;;;;;;3.17;1.35;;;;;;;22.28;56.97;98099.53;5051429;28;20068;-74
2021/06/26 05:42:37;;;;;;;2.60;1.20;;;;;;;22.32;56.53;98100.41;5051356;28;20029;-75
2021/06/26 05:45:04;;;;;;;0.95;0.88;;;;;;;22.41;56.19;98098.19;5050893;28;20137;-74
2021/06/26 05:47:29;;;;;;;4.70;1.48;;;;;;;22.53;55.59;98099.19;5032678;28;20041;-75
2021/06/26 05:49:54;;;;;;;1.73;1.30;;;;;;;22.56;55.18;98101.25;5051099;28;20031;-71
2021/06/26 05:52:20;;;;;;;3.22;1.40;;;;;;;22.60;55.16;98093.75;5050809;28;20021;-72
2021/06/26 05:54:46;;;;;;;1.45;1.02;;;;;;;22.66;55.48;98093.09;5051068;28;20106;-73
2021/06/26 05:57:11;;;;;;;4.28;1.40;;;;;;;22.70;55.62;98101.53;5050091;28;20033;-72
2021/06/26 05:59:37;;;;;;;6.53;2.92;;;;;;;22.81;55.82;98097.75;5051003;28;20231;-81
2021/06/26 06:02:02;;;;;;;3.95;2.17;;;;;;;23.04;55.36;98099.72;5033042;28;20025;-73
2021/06/26 06:04:27;;;;;;;5.70;1.70;;;;;;;22.81;55.83;98099.72;5050535;28;20053;-70
2021/06/26 06:06:53;;;;;;;6.07;1.90;;;;;;;23.30;54.58;98091.38;5050263;28;20492;-73
2021/06/26 06:09:20;;;;;;;5.55;1.45;;;;;;;23.42;54.92;98086.44;5050842;28;20091;-73
2021/06/26 06:11:45;;;;;;;3.58;2.40;;;;;;;23.57;52.96;98098.59;5051246;28;20051;-72
2021/06/26 06:14:11;;;;;;;4.03;1.55;;;;;;;23.91;51.40;98093.88;5050828;28;20017;-73
2021/06/26 06:16:37;;;;;;;4.18;1.60;;;;;;;24.22;50.91;98099.09;5053000;28;20401;-73
2021/06/26 06:19:03;;;;;;;2.15;1.67;;;;;;;23.94;49.91;98101.50;5050585;28;20028;-73
2021/06/26 06:21:28;;;;;;;6.10;1.35;;;;;;;23.56;50.62;98098.97;5050409;28;20037;-73
2021/06/26 06:23:54;;;;;;;6.90;2.85;;;;;;;23.01;51.73;98097.69;5050016;28;20029;-72
2021/06/26 06:26:19;;;;;;;10.18;3.10;;;;;;;23.16;51.84;98110.69;5050187;28;20490;-75
2021/06/26 06:28:45;;;;;;;3.92;2.15;;;;;;;23.13;52.34;98098.28;5049966;28;20033;-72
2021/06/26 06:31:10;;;;;;;6.40;1.73;;;;;;;23.40;52.19;98097.16;5050256;28;20021;-73
2021/06/26 06:33:36;;;;;;;4.40;1.92;;;;;;;23.32;52.12;98098.19;5031574;28;20028;-72
2021/06/26 06:36:06;;;;;;;4.32;1.90;;;;;;;23.55;51.90;98103.78;5049590;28;20039;-72
2021/06/26 06:38:32;;;;;;;7.20;2.50;;;;;;;22.47;54.01;98107.06;5050128;28;20024;-73
2021/06/26 06:40:57;;;;;;;2.53;1.67;;;;;;;23.02;52.98;98100.13;5031524;28;20029;-72
2021/06/26 06:43:22;;;;;;;6.47;1.45;;;;;;;23.44;53.11;98100.00;5050572;28;20112;-72
2021/06/26 06:45:48;;;;;;;2.60;1.48;;;;;;;23.69;51.54;98100.34;5052884;28;20075;-73
2021/06/26 06:48:13;;;;;;;2.25;1.67;;;;;;;23.68;51.60;98107.16;5052650;28;20099;-73
2021/06/26 06:50:39;;;;;;;10.82;2.15;;;;;;;23.78;51.43;98098.91;5048328;28;20039;-73
2021/06/26 06:53:04;;;;;;;3.67;1.45;;;;;;;23.86;52.31;98102.59;5049211;28;20030;-73
2021/06/26 06:55:29;;;;;;;2.40;1.27;;;;;;;23.95;51.74;98101.13;5048758;28;20040;-74
2021/06/26 06:57:55;;;;;;;4.40;1.13;;;;;;;24.26;50.34;98097.16;5049269;28;20104;-73
2021/06/26 07:00:20;;;;;;;4.93;1.63;;;;;;;24.43;49.14;98102.13;5032693;28;20021;-73
2021/06/26 07:02:46;;;;;;;6.75;1.88;;;;;;;23.95;50.07;98094.72;5049067;28;20032;-74
2021/06/26 07:05:11;;;;;;;6.20;1.15;;;;;;;24.05;50.45;98101.66;5048707;28;20021;-74
2021/06/26 07:07:37;;;;;;;3.22;1.67;;;;;;;24.04;49.65;98095.25;5048714;28;20024;-76
2021/06/26 07:10:06;;;;;;;3.25;1.30;;;;;;;24.50;49.71;98096.59;5048572;28;20009;-74
2021/06/26 07:12:32;;;;;;;4.03;1.58;;;;;;;24.11;49.60;98091.72;5046761;28;20021;-73
2021/06/26 07:14:58;;;;;;;5.18;1.70;;;;;;;24.24;49.63;98088.34;5048322;28;20103;-74
2021/06/26 07:17:23;;;;;;;2.88;1.15;;;;;;;24.00;49.66;98089.59;5048590;28;20061;-73
2021/06/26 07:19:48;;;;;;;6.20;1.38;;;;;;;24.31;49.69;98085.59;5048689;28;20028;-74
2021/06/26 07:22:14;;;;;;;4.05;1.67;;;;;;;24.69;49.22;98083.59;5048617;28;20013;-73
2021/06/26 07:24:40;;;;;;;3.60;1.75;;;;;;;24.95;47.68;98078.69;5048052;28;20059;-75
2021/06/26 07:27:06;;;;;;;3.55;1.63;;;;;;;24.98;47.48;98072.31;5048391;28;20121;-75
2021/06/26 07:29:31;;;;;;;2.33;0.98;;;;;;;25.50;46.22;98067.50;5029229;28;20511;-77
2021/06/26 07:31:57;;;;;;;2.40;1.42;;;;;;;25.42;45.77;98074.25;5045919;28;20091;-78
2021/06/26 07:34:22;;;;;;;3.38;1.65;;;;;;;24.89;46.47;98071.03;5042706;28;20446;-71
2021/06/26 07:36:50;;;;;;;2.45;1.25;;;;;;;24.56;47.42;98062.72;5046111;28;20513;-71
2021/06/26 07:39:16;;;;;;;5.82;2.03;;;;;;;24.76;46.99;98066.88;5045912;28;20043;-74
2021/06/26 07:41:41;;;;;;;2.72;1.73;;;;;;;24.70;49.37;98071.22;5046827;28;20480;-73
2021/06/26 07:44:07;;;;;;;1.58;1.20;;;;;;;24.22;48.30;98073.13;5047245;28;20076;-77
2021/06/26 07:46:32;;;;;;;2.50;1.25;;;;;;;24.72;50.25;98074.44;5047032;28;20405;-76
2021/06/26 07:48:58;;;;;;;8.40;1.33;;;;;;;24.84;49.33;98060.22;5047093;28;20059;-74
2021/06/26 07:51:23;;;;;;;7.80;1.40;;;;;;;24.71;49.82;98065.25;5049018;28;20044;-76
2021/06/26 07:53:49;;;;;;;3.50;1.80;;;;;;;25.27;49.77;98055.72;5050841;28;20075;-72
2021/06/26 07:56:14;;;;;;;3.22;1.50;;;;;;;25.20;48.73;98050.88;5052459;28;20433;-72
2021/06/26 07:58:40;;;;;;;6.03;1.50;;;;;;;25.69;47.97;98047.59;5052491;28;20029;-71
2021/06/26 08:01:06;;;;;;;2.97;1.30;;;;;;;25.33;45.52;98046.56;5051928;28;20013;-71
2021/06/26 08:03:31;;;;;;;1.92;1.20;;;;;;;25.64;47.10;98045.19;5051053;28;20068;-72
2021/06/26 08:05:56;;;;;;;4.05;1.77;;;;;;;25.91;46.48;98046.50;5051992;28;20020;-74
2021/06/26 08:08:22;;;;;;;1.50;1.30;;;;;;;25.83;47.10;98044.06;5033925;28;20035;-74
2021/06/26 08:10:49;;;;;;;1.73;1.33;;;;;;;26.13;47.54;98041.78;5051737;28;20049;-73
2021/06/26 08:13:15;;;;;;;2.13;1.35;;;;;;;25.69;43.70;98036.38;5052420;28;20017;-73
2021/06/26 08:15:46;;;;;;;7.72;1.95;;;;;;;26.16;47.07;98035.41;5052065;28;20097;-73
2021/06/26 08:18:12;;;;;;;7.05;1.35;;;;;;;26.26;45.21;98034.63;5052895;28;20029;-73
2021/06/26 08:20:39;;;;;;;4.55;1.35;;;;;;;25.94;46.52;98028.09;5051971;28;20102;-73
2021/06/26 08:23:05;;;;;;;4.22;1.38;;;;;;;25.84;47.74;98029.69;5052016;28;20029;-73
2021/06/26 08:25:34;;;;;;;1.85;1.70;;;;;;;25.91;48.30;98032.50;5051048;28;20564;-74
2021/06/26 08:28:00;;;;;;;1.30;1.10;;;;;;;25.06;47.70;98025.56;5052164;28;20469;-72
2021/06/26 08:30:25;;;;;;;1.38;1.27;;;;;;;24.76;47.75;98030.50;5044136;28;20036;-72
2021/06/26 08:32:51;;;;;;;3.08;1.20;;;;;;;24.71;49.40;98022.47;5031663;28;20029;-72
2021/06/26 08:35:17;;;;;;;1.35;1.08;;;;;;;24.75;47.29;98018.50;5045452;28;20033;-73
2021/06/26 08:37:44;;;;;;;2.13;1.23;;;;;;;25.12;46.51;98026.03;5051316;28;20504;-74
2021/06/26 08:40:11;;;;;;;2.80;1.45;;;;;;;24.62;48.84;98030.38;5033862;28;20183;-73
2021/06/26 08:42:37;;;;;;;2.70;1.10;;;;;;;25.19;47.73;98026.88;5045210;28;20017;-72
2021/06/26 08:45:06;;;;;;;2.28;1.33;;;;;;;25.56;45.98;98023.94;5050418;28;20051;-73
2021/06/26 08:47:31;;;;;;;3.03;1.00;;;;;;;25.80;46.54;98025.25;5050544;28;20131;-73
2021/06/26 08:49:57;;;;;;;3.85;1.70;;;;;;;25.03;47.01;98023.53;5051491;28;20449;-74
2021/06/26 08:52:22;;;;;;;1.50;1.30;;;;;;;25.33;45.77;98024.16;5050915;28;20079;-73
2021/06/26 08:54:52;;;;;;;2.33;1.02;;;;;;;25.31;46.23;98020.94;5047110;28;20462;-72
2021/06/26 08:57:30;;;;;;;2.13;1.23;;;;;;;25.39;47.99;98008.59;5036343;28;20663;-72
2021/06/26 08:59:58;;;;;;;2.38;1.20;;;;;;;26.07;45.41;98020.94;5023666;28;20385;-73
2021/06/26 09:02:24;;;;;;;1.17;0.95;;;;;;;26.50;45.90;98017.03;5063203;28;20095;-73
2021/06/26 09:04:50;;;;;;;2.28;1.35;;;;;;;26.81;43.24;98017.53;5041134;28;20053;-74
2021/06/26 09:07:26;;;;;;;4.90;1.95;;;;;;;25.94;43.98;98011.25;5053562;28;20491;-73
2021/06/26 09:09:55;;;;;;;2.90;1.13;;;;;;;26.68;45.05;98021.88;5033948;28;20053;-74
2021/06/26 09:12:21;;;;;;;1.40;1.30;;;;;;;26.78;43.10;98012.69;5048612;28;20048;-72
2021/06/26 09:14:47;;;;;;;2.10;1.30;;;;;;;25.98;44.79;98010.09;5032662;28;20045;-72
2021/06/26 09:17:17;;;;;;;1.65;1.23;;;;;;;26.73;43.38;98004.63;5049611;28;20024;-72
2021/06/26 09:19:52;;;;;;;1.20;1.10;;;;;;;26.63;43.47;97997.81;5049619;28;20516;-73
2021/06/26 09:22:18;;;;;;;4.53;1.55;;;;;;;26.52;42.96;98003.44;5048318;28;20052;-73
2021/06/26 09:24:46;;;;;;;1.35;1.25;;;;;;;26.33;44.84;97998.19;5049493;28;20074;-74
2021/06/26 09:27:14;;;;;;;3.30;1.50;;;;;;;25.78;44.56;98003.19;5044403;28;20025;-71
2021/06/26 09:29:54;;;;;;;1.45;1.30;;;;;;;25.90;45.03;97999.25;5049653;28;20021;-73
2021/06/26 09:32:24;;;;;;;1.40;1.20;;;;;;;26.19;44.36;97998.16;5038798;28;20056;-72
2021/06/26 09:34:50;;;;;;;1.48;1.35;;;;;;;25.83;44.67;97999.22;5040908;28;20497;-72
2021/06/26 09:37:21;;;;;;;3.20;1.35;;;;;;;26.46;44.48;97982.59;5042641;28;20048;-72
2021/06/26 09:39:47;;;;;;;1.48;1.10;;;;;;;26.42;43.69;97986.56;5020949;28;20020;-73
2021/06/26 09:42:18;;;;;;;1.25;1.15;;;;;;;25.90;43.67;97980.44;5039331;28;20022;-72
2021/06/26 09:44:56;;;;;;;1.27;1.17;;;;;;;26.35;42.90;97986.56;5046943;28;20492;-72
2021/06/26 09:47:34;;;;;;;1.90;1.00;;;;;;;26.10;42.89;97987.28;5047344;28;20033;-73
2021/06/26 09:50:10;;;;;;;3.78;1.33;;;;;;;26.42;42.76;97983.75;5048156;28;20021;-73
2021/06/26 09:52:47;;;;;;;2.40;1.30;;;;;;;26.18;45.32;97982.53;5030056;28;20107;-84
2021/06/26 09:55:29;;;;;;;1.20;1.00;;;;;;;26.31;46.05;97980.16;5029700;28;20086;-78
2021/06/26 09:57:57;;;;;;;1.10;1.00;;;;;;;26.36;46.66;97982.56;5047126;28;20040;-75
2021/06/26 10:00:27;;;;;;;1.75;1.40;;;;;;;26.50;45.19;97983.38;5048997;28;20055;-75
2021/06/26 10:02:54;;;;;;;3.15;0.88;;;;;;;26.63;43.76;97985.81;5046924;28;20446;-77
2021/06/26 10:05:19;;;;;;;1.58;1.17;;;;;;;25.92;45.79;97980.03;5030834;28;20039;-75
2021/06/26 10:07:47;;;;;;;1.25;1.15;;;;;;;25.36;46.83;97984.16;5049052;28;20389;-77
2021/06/26 10:10:15;;;;;;;2.67;1.17;;;;;;;25.33;47.12;97978.53;5049198;28;20028;-73
2021/06/26 10:12:41;;;;;;;2.53;2.00;;;;;;;25.51;48.60;97973.84;5049388;28;20021;-75
2021/06/26 10:15:09;;;;;;;2.25;1.35;;;;;;;25.64;47.38;97977.13;5031237;28;20103;-76
2021/06/26 10:17:35;;;;;;;3.58;1.58;;;;;;;26.34;45.12;97968.13;5048561;28;20102;-73
2021/06/26 10:20:03;;;;;;;1.75;1.40;;;;;;;26.01;45.02;97977.66;5046482;28;20112;-75
2021/06/26 10:22:29;;;;;;;1.35;1.20;;;;;;;25.77;47.64;97975.56;5048057;28;20458;-74
2021/06/26 10:24:55;;;;;;;2.75;1.70;;;;;;;26.34;42.24;97966.13;5048404;28;20025;-74
2021/06/26 10:27:23;;;;;;;8.10;1.80;;;;;;;26.57;41.98;97974.97;5048417;28;20025;-76
2021/06/26 10:29:49;;;;;;;1.55;1.15;;;;;;;27.10;40.53;97960.91;5047852;28;20028;-78
2021/06/26 10:32:17;;;;;;;1.75;1.10;;;;;;;26.98;42.41;97960.53;5047860;28;20122;-74
2021/06/26 10:34:48;;;;;;;4.30;1.30;;;;;;;26.07;44.86;97967.63;5047846;28;20029;-74
2021/06/26 10:37:24;;;;;;;2.63;1.58;;;;;;;25.99;45.26;97966.84;5040726;28;20047;-73
2021/06/26 10:40:07;;;;;;;2.67;1.38;;;;;;;25.98;45.58;97961.63;5037914;28;20032;-74
2021/06/26 10:42:36;;;;;;;0.70;0.70;;;;;;;26.22;44.91;97954.50;5036819;28;20021;-72
2021/06/26 10:45:07;;;;;;;2.88;1.50;;;;;;;26.30;42.63;97951.28;5038991;28;20029;-72
2021/06/26 10:47:33;;;;;;;2.47;1.35;;;;;;;26.45;45.00;97958.53;5038381;28;20048;-77
2021/06/26 10:50:28;;;;;;;1.58;1.15;;;;;;;26.19;41.69;97958.88;5038662;28;20025;-78
2021/06/26 10:52:55;;;;;;;2.72;1.10;;;;;;;26.73;41.15;97968.94;5032567;28;20513;-78
2021/06/26 10:55:29;;;;;;;2.35;1.05;;;;;;;27.35;38.78;97958.03;5048074;28;20041;-75
2021/06/26 10:57:56;;;;;;;3.28;1.20;;;;;;;27.73;37.71;97959.13;5049302;28;20477;-75
2021/06/26 11:00:35;;;;;;;2.03;0.80;;;;;;;27.55;37.83;97953.59;5048591;28;20087;-78
2021/06/26 11:03:01;;;;;;;1.38;1.00;;;;;;;28.04;36.49;97949.72;5047737;28;20036;-74
2021/06/26 11:05:31;;;;;;;0.98;0.93;;;;;;;28.00;37.95;97962.22;5050163;28;20126;-74
2021/06/26 11:07:57;;;;;;;0.70;0.70;;;;;;;27.61;38.31;97949.16;5032504;28;20362;-76
2021/06/26 11:10:23;;;;;;;1.60;1.50;;;;;;;27.77;38.30;97953.50;5031079;28;20078;-74
2021/06/26 11:12:49;;;;;;;3.70;1.58;;;;;;;27.86;38.08;97953.84;5050484;28;20029;-75
2021/06/26 11:15:23;;;;;;;1.20;0.82;;;;;;;28.43;37.33;97946.69;5023858;28;20394;-75
2021/06/26 11:17:49;;;;;;;1.05;1.00;;;;;;;29.24;35.65;97939.53;5012540;28;20086;-75
2021/06/26 11:20:16;;;;;;;1.17;0.90;;;;;;;29.21;35.60;97943.19;5029516;28;20021;-75
2021/06/26 11:22:54;;;;;;;1.45;0.80;;;;;;;29.00;35.60;97932.94;5030186;28;20045;-75
2021/06/26 11:25:20;;;;;;;0.90;0.90;;;;;;;29.36;35.48;97938.19;5029490;28;20026;-74
2021/06/26 11:27:45;;;;;;;1.05;0.90;;;;;;;28.45;36.05;97935.00;5016672;28;20025;-74
2021/06/26 11:30:13;;;;;;;7.20;1.20;;;;;;;28.96;35.40;97928.53;5034221;28;20026;-74
2021/06/26 11:32:39;;;;;;;0.80;0.80;;;;;;;29.04;34.97;97924.44;5033998;28;21639;-73